createdAt,value
2022-08-03T00:02:20.305Z,98753.42
2022-08-03T00:04:47.937Z,98759.89
2022-08-03T00:07:17.968Z,98759.39
2022-08-03T00:09:55.137Z,98758.69
2022-08-03T00:12:25.774Z,98761.08
2022-08-03T00:14:56.226Z,98760.49
2022-08-03T00:17:29.361Z,98761.31
2022-08-03T00:19:59.468Z,98765.50
2022-08-03T00:22:30.378Z,98766.19
2022-08-03T00:25:03.467Z,98764.66
2022-08-03T00:27:34.300Z,98764.73
2022-08-03T00:30:07.816Z,98759.60
2022-08-03T00:32:53.282Z,98764.30
2022-08-03T00:35:36.815Z,98758.02
2022-08-03T00:38:13.880Z,98756.52
2022-08-03T00:40:44.634Z,98763.38
2022-08-03T00:43:15.511Z,98765.91
2022-08-03T00:45:47.989Z,98772.02
2022-08-03T00:48:32.172Z,98772.67
2022-08-03T00:51:04.562Z,98769.23
2022-08-03T00:53:35.666Z,98766.67
2022-08-03T00:56:08.517Z,98768.48
2022-08-03T00:58:44.442Z,98769.50
2022-08-03T01:01:12.767Z,98770.07
2022-08-03T01:03:48.995Z,98770.59
2022-08-03T01:06:21.888Z,98772.44
2022-08-03T01:09:39.785Z,98771.91
2022-08-03T01:12:34.111Z,98770.48
2022-08-03T01:15:34.523Z,98769.16
2022-08-03T01:18:43.279Z,98771.59
2022-08-03T01:21:29.649Z,98771.28
2022-08-03T01:24:05.758Z,98767.39
2022-08-03T01:26:46.081Z,98770.17
2022-08-03T01:29:41.782Z,98769.36
2022-08-03T01:32:58.850Z,98765.52
2022-08-03T01:35:14.559Z,98765.09
2022-08-03T01:38:01.378Z,98766.03
2022-08-03T01:40:29.152Z,98764.30
2022-08-03T01:43:03.164Z,98766.49
2022-08-03T01:45:33.974Z,98767.34
2022-08-03T01:48:04.425Z,98763.56
2022-08-03T01:50:37.336Z,98758.10
2022-08-03T01:53:04.707Z,98759.33
2022-08-03T01:55:33.326Z,98754.28
2022-08-03T01:58:06.024Z,98753.35
2022-08-03T02:00:43.027Z,98753.65
2022-08-03T02:03:18.894Z,98753.64
2022-08-03T02:06:01.243Z,98758.46
2022-08-03T02:09:02.896Z,98757.17
2022-08-03T02:11:58.877Z,98756.13
2022-08-03T02:14:38.675Z,98754.88
2022-08-03T02:17:15.777Z,98756.74
2022-08-03T02:20:25.604Z,98758.29
2022-08-03T02:23:06.931Z,98754.73
2022-08-03T02:26:02.035Z,98754.73
2022-08-03T02:31:15.705Z,98752.36
2022-08-03T02:33:55.871Z,98750.77
2022-08-03T02:36:31.729Z,98749.21
2022-08-03T02:39:04.626Z,98749.77
2022-08-03T02:42:18.051Z,98751.13
2022-08-03T02:44:50.978Z,98752.39
2022-08-03T02:47:21.081Z,98749.15
2022-08-03T02:50:14.950Z,98756.68
2022-08-03T02:53:07.727Z,98758.23
2022-08-03T02:55:47.972Z,98760.47
2022-08-03T02:58:37.296Z,98762.34
2022-08-03T03:01:16.499Z,98764.08
2022-08-03T03:03:44.808Z,98765.00
2022-08-03T03:06:12.625Z,98765.86
2022-08-03T03:08:43.004Z,98765.29
2022-08-03T03:11:10.956Z,98769.38
2022-08-03T03:13:38.760Z,98768.85
2022-08-03T03:16:06.506Z,98771.34
2022-08-03T03:18:34.461Z,98777.05
2022-08-03T03:21:03.122Z,98775.29
2022-08-03T03:23:31.325Z,98779.73
2022-08-03T03:25:59.075Z,98782.73
2022-08-03T03:28:26.539Z,98782.02
2022-08-03T03:30:56.572Z,98785.38
2022-08-03T03:33:23.959Z,98787.75
2022-08-03T03:35:51.891Z,98790.48
2022-08-03T03:38:19.727Z,98791.02
2022-08-03T03:40:47.240Z,98792.60
2022-08-03T03:43:14.978Z,98803.33
2022-08-03T03:45:45.132Z,98807.20
2022-08-03T03:48:12.800Z,98803.74
2022-08-03T03:50:41.114Z,98805.92
2022-08-03T03:53:12.117Z,98808.89
2022-08-03T03:55:59.594Z,98807.74
2022-08-03T03:58:28.084Z,98814.59
2022-08-03T04:00:58.121Z,98818.00
2022-08-03T04:03:25.635Z,98816.46
2022-08-03T04:06:12.034Z,98819.49
2022-08-03T04:08:58.085Z,98815.06
2022-08-03T04:11:31.895Z,98814.88
2022-08-03T04:14:17.031Z,98816.58
2022-08-03T04:16:50.772Z,98817.30
2022-08-03T04:19:38.779Z,98816.66
2022-08-03T04:22:15.387Z,98818.04
2022-08-03T04:24:54.131Z,98819.27
2022-08-03T04:27:22.738Z,98823.90
2022-08-03T04:29:54.159Z,98819.84
2022-08-03T04:32:28.912Z,98821.11
2022-08-03T04:34:58.966Z,98825.73
2022-08-03T04:37:51.898Z,98833.16
2022-08-03T04:40:41.699Z,98834.70
2022-08-03T04:43:10.247Z,98835.40
2022-08-03T04:45:40.172Z,98838.95
2022-08-03T04:48:07.671Z,98839.30
2022-08-03T04:50:35.677Z,98835.06
2022-08-03T04:53:06.287Z,98831.20
2022-08-03T04:55:36.931Z,98824.73
2022-08-03T04:58:04.163Z,98830.33
2022-08-03T05:00:31.439Z,98834.31
2022-08-03T05:02:59.192Z,98828.56
2022-08-03T05:05:48.704Z,98827.08
2022-08-03T05:08:27.799Z,98826.44
2022-08-03T05:11:01.506Z,98828.10
2022-08-03T05:13:28.820Z,98829.00
2022-08-03T05:15:55.991Z,98832.33
2022-08-03T05:18:25.794Z,98829.56
2022-08-03T05:21:02.286Z,98830.30
2022-08-03T05:23:29.601Z,98829.16
2022-08-03T05:25:59.457Z,98826.83
2022-08-03T05:28:29.576Z,98826.47
2022-08-03T05:31:00.191Z,98829.96
2022-08-03T05:33:30.275Z,98829.65
2022-08-03T05:36:03.609Z,98826.17
2022-08-03T05:38:36.432Z,98829.40
2022-08-03T05:41:21.375Z,98829.98
2022-08-03T05:43:58.744Z,98827.18
2022-08-03T05:46:28.403Z,98832.80
2022-08-03T05:48:57.101Z,98835.85
2022-08-03T05:51:27.814Z,98837.85
2022-08-03T05:53:55.905Z,98834.98
2022-08-03T05:56:26.974Z,98834.50
2022-08-03T05:58:54.221Z,98838.36
2022-08-03T06:01:24.581Z,98842.15
2022-08-03T06:03:52.386Z,98848.23
2022-08-03T06:06:19.798Z,98845.84
2022-08-03T06:08:48.841Z,98850.28
2022-08-03T06:11:18.990Z,98851.93
2022-08-03T06:13:46.669Z,98852.62
2022-08-03T06:16:14.289Z,98856.03
2022-08-03T06:18:41.699Z,98861.83
2022-08-03T06:21:15.208Z,98860.09
2022-08-03T06:23:53.927Z,98863.69
2022-08-03T06:26:25.799Z,98865.73
2022-08-03T06:28:54.392Z,98861.52
2022-08-03T06:31:24.329Z,98864.05
2022-08-03T06:34:33.510Z,98868.15
2022-08-03T06:36:43.976Z,98868.76
2022-08-03T06:39:31.747Z,98866.60
2022-08-03T06:41:59.332Z,98864.69
2022-08-03T06:44:28.091Z,98863.17
2022-08-03T06:46:55.850Z,98858.89
2022-08-03T06:49:23.307Z,98858.84
2022-08-03T06:52:04.186Z,98857.34
2022-08-03T06:54:38.105Z,98853.25
2022-08-03T06:57:06.551Z,98854.53
2022-08-03T07:00:08.224Z,98851.80
2022-08-03T07:02:31.827Z,98853.47
2022-08-03T07:04:59.010Z,98849.27
2022-08-03T07:07:29.420Z,98852.76
2022-08-03T07:09:58.300Z,98858.70
2022-08-03T07:12:28.729Z,98859.00
2022-08-03T07:15:00.809Z,98858.27
2022-08-03T07:17:30.507Z,98856.38
2022-08-03T07:20:03.852Z,98852.23
2022-08-03T07:22:31.571Z,98849.66
2022-08-03T07:25:01.864Z,98853.45
2022-08-03T07:27:30.471Z,98854.70
2022-08-03T07:29:59.525Z,98854.55
2022-08-03T07:32:26.787Z,98854.30
2022-08-03T07:34:59.906Z,98850.77
2022-08-03T07:37:30.947Z,98848.65
2022-08-03T07:39:58.988Z,98850.59
2022-08-03T07:42:29.920Z,98855.55
2022-08-03T07:44:57.986Z,98855.09
2022-08-03T07:47:34.828Z,98853.42
2022-08-03T07:50:04.883Z,98855.25
2022-08-03T07:52:51.600Z,98853.39
2022-08-03T07:55:23.216Z,98855.84
2022-08-03T07:58:06.548Z,98856.67
2022-08-03T08:00:37.169Z,98857.89
2022-08-03T08:03:04.874Z,98854.02
2022-08-03T08:05:32.485Z,98861.98
2022-08-03T08:08:00.734Z,98859.69
2022-08-03T08:10:28.809Z,98858.77
2022-08-03T08:12:56.910Z,98853.46
2022-08-03T08:15:26.546Z,98852.95
2022-08-03T08:17:55.664Z,98850.56
2022-08-03T08:20:30.465Z,98850.30
2022-08-03T08:23:03.506Z,98844.76
2022-08-03T08:25:37.393Z,98846.42
2022-08-03T08:28:30.710Z,98849.23
2022-08-03T08:30:52.650Z,98850.91
2022-08-03T08:33:23.270Z,98847.38
2022-08-03T08:35:55.165Z,98849.14
2022-08-03T08:38:24.046Z,98847.16
2022-08-03T08:40:51.656Z,98847.73
2022-08-03T08:43:18.912Z,98838.80
2022-08-03T08:45:50.365Z,98839.26
2022-08-03T08:48:25.206Z,98838.23
2022-08-03T08:50:56.579Z,98836.38
2022-08-03T08:53:29.003Z,98840.96
2022-08-03T08:56:01.088Z,98838.48
2022-08-03T08:58:37.064Z,98840.27
2022-08-03T09:01:04.772Z,98836.09
2022-08-03T09:03:35.835Z,98835.70
2022-08-03T09:06:03.624Z,98838.95
2022-08-03T09:08:40.012Z,98838.59
2022-08-03T09:11:07.913Z,98838.21
2022-08-03T09:13:36.151Z,98840.94
2022-08-03T09:16:22.634Z,98841.91
2022-08-03T09:18:51.679Z,98837.88
2022-08-03T09:21:34.602Z,98833.36
2022-08-03T09:24:05.321Z,98834.55
2022-08-03T09:26:35.087Z,98833.48
2022-08-03T09:29:10.875Z,98836.88
2022-08-03T09:31:43.474Z,98834.81
2022-08-03T09:34:17.989Z,98835.70
2022-08-03T09:36:49.721Z,98831.83
2022-08-03T09:39:18.799Z,98836.84
2022-08-03T09:42:04.060Z,98831.80
2022-08-03T09:44:42.628Z,98837.41
2022-08-03T09:47:10.640Z,98836.49
2022-08-03T09:49:38.734Z,98833.83
2022-08-03T09:52:37.710Z,98836.58
2022-08-03T09:56:31.118Z,98829.27
2022-08-03T09:58:09.594Z,98831.11
2022-08-03T10:00:52.678Z,98828.73
2022-08-03T10:03:23.949Z,98821.03
2022-08-03T10:05:59.311Z,98822.85
2022-08-03T10:08:36.833Z,98827.80
2022-08-03T10:11:06.414Z,98823.45
2022-08-03T10:13:34.355Z,98827.00
2022-08-03T10:16:22.822Z,98820.40
2022-08-03T10:18:57.868Z,98821.10
2022-08-03T10:21:36.066Z,98829.90
2022-08-03T10:24:17.827Z,98830.16
2022-08-03T10:26:49.694Z,98821.39
2022-08-03T10:29:27.601Z,98821.71
2022-08-03T10:32:02.064Z,98818.95
2022-08-03T10:34:35.252Z,98820.81
2022-08-03T10:37:02.501Z,98820.31
2022-08-03T10:39:30.092Z,98815.96
2022-08-03T10:42:02.670Z,98817.57
2022-08-03T10:44:33.951Z,98823.70
2022-08-03T10:47:12.487Z,98823.91
2022-08-03T10:49:49.306Z,98822.20
2022-08-03T10:52:32.863Z,98819.05
2022-08-03T10:55:21.324Z,98815.83
2022-08-03T10:57:58.244Z,98811.58
2022-08-03T11:00:27.228Z,98813.16
2022-08-03T11:03:16.668Z,98811.11
2022-08-03T11:05:48.246Z,98810.66
2022-08-03T11:08:39.657Z,98806.52
2022-08-03T11:11:19.420Z,98809.02
2022-08-03T11:14:08.646Z,98802.85
2022-08-03T11:16:43.559Z,98809.00
2022-08-03T11:19:14.520Z,98801.86
2022-08-03T11:21:53.373Z,98800.88
2022-08-03T11:24:47.341Z,98797.02
2022-08-03T11:27:17.862Z,98793.27
2022-08-03T11:30:29.316Z,98793.05
2022-08-03T11:33:02.602Z,98793.59
2022-08-03T11:35:35.502Z,98786.20
2022-08-03T11:38:05.301Z,98791.20
2022-08-03T11:40:39.961Z,98788.42
2022-08-03T11:43:22.474Z,98787.41
2022-08-03T11:46:03.134Z,98781.79
2022-08-03T11:48:40.419Z,98780.52
2022-08-03T11:51:08.296Z,98782.84
2022-08-03T11:53:42.100Z,98783.06
2022-08-03T11:56:13.263Z,98778.97
2022-08-03T11:59:01.902Z,98781.15
2022-08-03T12:01:43.443Z,98782.06
2022-08-03T12:04:11.828Z,98782.36
2022-08-03T12:06:55.244Z,98783.13
2022-08-03T12:09:26.530Z,98781.65
2022-08-03T12:11:59.898Z,98781.39
2022-08-03T12:14:51.210Z,98780.42
2022-08-03T12:17:19.935Z,98779.66
2022-08-03T12:19:49.846Z,98778.26
2022-08-03T12:22:31.013Z,98775.14
2022-08-03T12:24:58.903Z,98771.10
2022-08-03T12:27:31.945Z,98772.02
2022-08-03T12:29:59.947Z,98773.66
2022-08-03T12:32:33.549Z,98771.90
2022-08-03T12:35:11.730Z,98770.41
2022-08-03T12:37:41.888Z,98767.73
2022-08-03T12:40:13.277Z,98765.68
2022-08-03T12:42:45.003Z,98761.92
2022-08-03T12:45:28.407Z,98758.31
2022-08-03T12:48:01.808Z,98761.54
2022-08-03T12:50:33.632Z,98762.73
2022-08-03T12:53:05.428Z,98761.59
2022-08-03T12:55:57.892Z,98759.95
2022-08-03T12:58:39.129Z,98761.27
2022-08-03T13:01:13.677Z,98754.05
2022-08-03T13:03:43.150Z,98755.02
2022-08-03T13:06:13.560Z,98755.23
2022-08-03T13:08:41.860Z,98753.29
2022-08-03T13:11:55.497Z,98751.61
2022-08-03T13:14:20.374Z,98748.04
2022-08-03T13:16:57.157Z,98746.77
2022-08-03T13:19:26.609Z,98743.26
2022-08-03T13:22:03.943Z,98739.60
2022-08-03T13:24:32.661Z,98741.77
2022-08-03T13:27:00.637Z,98744.02
2022-08-03T13:29:50.739Z,98740.48
2022-08-03T13:32:21.141Z,98733.26
2022-08-03T13:34:48.581Z,98734.50
2022-08-03T13:37:16.131Z,98732.13
2022-08-03T13:39:57.562Z,98731.48
2022-08-03T13:42:32.745Z,98733.30
2022-08-03T13:45:00.574Z,98735.80
2022-08-03T13:47:28.136Z,98738.01
2022-08-03T13:50:01.151Z,98738.63
2022-08-03T13:52:33.950Z,98737.64
2022-08-03T13:55:02.453Z,98739.55
2022-08-03T13:58:18.928Z,98738.54
2022-08-03T14:00:26.507Z,98736.36
2022-08-03T14:03:05.313Z,98735.06
2022-08-03T14:05:38.772Z,98739.11
2022-08-03T14:08:07.120Z,98736.83
2022-08-03T14:10:45.947Z,98739.94
2022-08-03T14:13:16.584Z,98736.70
2022-08-03T14:15:51.175Z,98737.77
2022-08-03T14:18:28.924Z,98739.41
2022-08-03T14:21:05.765Z,98737.38
2022-08-03T14:23:34.875Z,98732.64
2022-08-03T14:26:02.049Z,98732.73
2022-08-03T14:28:29.781Z,98733.10
2022-08-03T14:30:57.287Z,98730.95
2022-08-03T14:33:25.075Z,98727.60
2022-08-03T14:35:52.352Z,98723.41
2022-08-03T14:38:19.756Z,98724.05
2022-08-03T14:40:47.583Z,98725.02
2022-08-03T14:43:18.629Z,98720.14
2022-08-03T14:45:46.215Z,98719.39
2022-08-03T14:50:32.161Z,98719.77
2022-08-03T14:51:18.073Z,98719.77
2022-08-03T14:53:46.658Z,98722.33
2022-08-03T14:56:16.791Z,98717.45
2022-08-03T14:58:51.551Z,98715.07
2022-08-03T15:02:06.018Z,98720.29
2022-08-03T15:04:10.489Z,98719.63
2022-08-03T15:06:41.202Z,98720.38
2022-08-03T15:09:23.594Z,98719.12
2022-08-03T15:11:51.486Z,98720.27
2022-08-03T15:14:22.224Z,98722.34
2022-08-03T15:17:00.862Z,98717.79
2022-08-03T15:20:02.292Z,98720.05
2022-08-03T15:22:20.528Z,98720.23
2022-08-03T15:24:56.351Z,98725.48
2022-08-03T15:27:23.930Z,98719.58
2022-08-03T15:30:08.786Z,98723.92
2022-08-03T15:32:37.682Z,98724.17
2022-08-03T15:35:05.411Z,98721.74
2022-08-03T15:37:32.997Z,98721.67
2022-08-03T15:40:01.234Z,98721.20
2022-08-03T15:42:29.728Z,98723.05
2022-08-03T15:44:58.187Z,98722.84
2022-08-03T15:47:25.866Z,98721.97
2022-08-03T15:49:53.261Z,98721.98
2022-08-03T15:52:20.596Z,98720.44
2022-08-03T15:54:47.972Z,98721.95
2022-08-03T15:57:15.264Z,98720.53
2022-08-03T15:59:44.978Z,98720.16
2022-08-03T16:02:13.106Z,98721.36
2022-08-03T16:04:40.619Z,98719.94
2022-08-03T16:07:07.781Z,98719.59
2022-08-03T16:09:44.084Z,98721.34
2022-08-03T16:12:16.095Z,98723.94
2022-08-03T16:14:52.960Z,98721.53
2022-08-03T16:17:24.782Z,98719.70
2022-08-03T16:19:55.123Z,98717.98
2022-08-03T16:22:26.494Z,98721.39
2022-08-03T16:24:54.034Z,98724.08
2022-08-03T16:27:56.821Z,98726.57
2022-08-03T16:30:10.142Z,98729.34
2022-08-03T16:32:39.773Z,98730.55
2022-08-03T16:35:07.323Z,98735.73
2022-08-03T16:37:38.780Z,98735.65
2022-08-03T16:40:17.383Z,98738.42
2022-08-03T16:42:47.080Z,98742.84
2022-08-03T16:45:18.280Z,98747.38
2022-08-03T16:48:01.262Z,98746.89
2022-08-03T16:50:35.491Z,98751.54
2022-08-03T16:53:09.089Z,98754.16
2022-08-03T16:55:48.921Z,98753.11
2022-08-03T16:58:34.422Z,98758.90
2022-08-03T17:01:20.949Z,98756.80
2022-08-03T17:04:02.756Z,98760.36
2022-08-03T17:06:36.271Z,98762.48
2022-08-03T17:09:12.809Z,98765.13
2022-08-03T17:11:43.924Z,98771.10
2022-08-03T17:14:22.757Z,98769.94
2022-08-03T17:16:55.643Z,98769.39
2022-08-03T17:19:29.456Z,98770.04
2022-08-03T17:22:07.938Z,98774.89
2022-08-03T17:24:48.121Z,98778.52
2022-08-03T17:28:48.252Z,98778.13
2022-08-03T17:30:54.346Z,98780.92
2022-08-03T17:33:25.212Z,98782.15
2022-08-03T17:36:08.891Z,98784.47
2022-08-03T17:38:40.716Z,98788.20
2022-08-03T17:41:15.452Z,98792.14
2022-08-03T17:44:15.994Z,98794.70
2022-08-03T17:46:38.920Z,98796.07
2022-08-03T17:49:25.030Z,98800.90
2022-08-03T17:52:03.153Z,98797.87
2022-08-03T17:55:56.043Z,98805.34
2022-08-03T17:58:02.789Z,98807.38
2022-08-03T18:00:52.661Z,98811.16
2022-08-03T18:04:10.616Z,98819.94
2022-08-03T18:06:55.751Z,98819.99
2022-08-03T18:10:05.945Z,98827.48
2022-08-03T18:12:23.380Z,98827.40
2022-08-03T18:15:01.123Z,98831.14
2022-08-03T18:17:58.182Z,98831.70
2022-08-03T18:20:34.341Z,98828.99
2022-08-03T18:23:09.457Z,98836.05
2022-08-03T18:25:53.621Z,98837.19
2022-08-03T18:28:35.918Z,98841.15
2022-08-03T18:31:08.323Z,98838.92
2022-08-03T18:34:18.954Z,98839.23
2022-08-03T18:36:34.387Z,98845.48
2022-08-03T18:39:04.801Z,98846.55
2022-08-03T18:41:36.690Z,98846.11
2022-08-03T18:44:53.044Z,98845.02
2022-08-03T18:47:22.455Z,98844.05
2022-08-03T18:50:20.708Z,98843.98
2022-08-03T18:52:54.907Z,98843.87
2022-08-03T18:55:33.554Z,98848.02
2022-08-03T18:58:38.660Z,98853.79
2022-08-03T19:01:57.980Z,98849.16
2022-08-03T19:04:29.805Z,98849.41
2022-08-03T19:07:08.965Z,98853.86
2022-08-03T19:09:52.690Z,98854.01
2022-08-03T19:12:35.443Z,98856.11
2022-08-03T19:15:10.519Z,98856.30
2022-08-03T19:17:53.362Z,98855.86
2022-08-03T19:20:21.583Z,98855.98
2022-08-03T19:22:53.212Z,98857.81
2022-08-03T19:25:20.765Z,98861.98
2022-08-03T19:28:04.076Z,98859.87
2022-08-03T19:30:39.720Z,98863.14
2022-08-03T19:33:08.966Z,98859.80
2022-08-03T19:35:55.340Z,98860.38
2022-08-03T19:38:28.335Z,98859.31
2022-08-03T19:41:19.721Z,98862.65
2022-08-03T19:43:53.533Z,98864.18
2022-08-03T19:46:22.551Z,98865.91
2022-08-03T19:49:10.665Z,98863.48
2022-08-03T19:51:58.412Z,98864.80
2022-08-03T19:54:53.214Z,98864.67
2022-08-03T19:57:34.606Z,98866.30
2022-08-03T20:00:03.344Z,98868.58
2022-08-03T20:02:40.499Z,98866.30
2022-08-03T20:05:14.990Z,98865.33
2022-08-03T20:07:48.191Z,98871.24
2022-08-03T20:10:20.697Z,98870.55
2022-08-03T20:12:55.574Z,98867.06
2022-08-03T20:15:31.478Z,98869.89
2022-08-03T20:18:06.799Z,98868.98
2022-08-03T20:20:44.360Z,98870.33
2022-08-03T20:23:18.441Z,98867.70
2022-08-03T20:26:03.788Z,98864.20
2022-08-03T20:29:09.911Z,98862.23
2022-08-03T20:31:44.312Z,98861.02
2022-08-03T20:34:12.075Z,98862.46
2022-08-03T20:36:57.156Z,98864.02
2022-08-03T20:39:37.019Z,98863.33
2022-08-03T20:42:07.636Z,98865.46
2022-08-03T20:44:39.264Z,98862.66
2022-08-03T20:47:23.999Z,98863.27
2022-08-03T20:49:57.302Z,98863.92
2022-08-03T20:52:33.300Z,98862.48
2022-08-03T20:55:02.369Z,98863.49
2022-08-03T21:00:46.719Z,98863.20
2022-08-03T21:03:22.308Z,98863.54
2022-08-03T21:06:01.622Z,98865.70
2022-08-03T21:08:33.928Z,98864.77
2022-08-03T21:11:04.402Z,98865.33
2022-08-03T21:13:14.350Z,98865.20
2022-08-03T21:14:18.180Z,98861.72
2022-08-03T21:16:47.694Z,98864.86
2022-08-03T21:19:21.128Z,98864.48
2022-08-03T21:21:54.132Z,98866.70
2022-08-03T21:24:24.721Z,98864.08
2022-08-03T21:26:55.196Z,98863.95
2022-08-03T21:29:25.932Z,98865.73
2022-08-03T21:32:33.174Z,98861.36
2022-08-03T21:35:12.125Z,98867.33
2022-08-03T21:37:40.545Z,98869.45
2022-08-03T21:40:09.370Z,98871.19
2022-08-03T21:42:40.364Z,98873.36
2022-08-03T21:45:17.992Z,98871.10
2022-08-03T21:47:48.874Z,98870.96
2022-08-03T21:50:28.909Z,98873.10
2022-08-03T21:53:05.241Z,98873.98
2022-08-03T21:55:38.180Z,98875.66
2022-08-03T21:58:10.839Z,98877.36
2022-08-03T22:00:41.354Z,98878.73
2022-08-03T22:03:19.253Z,98878.02
2022-08-03T22:05:52.456Z,98875.69
2022-08-03T22:08:34.408Z,98872.31
2022-08-03T22:11:12.475Z,98871.77
2022-08-03T22:13:58.750Z,98876.23
2022-08-03T22:16:46.787Z,98871.98
2022-08-03T22:19:30.134Z,98875.55
2022-08-03T22:22:08.581Z,98871.65
2022-08-03T22:24:59.697Z,98871.02
2022-08-03T22:27:35.039Z,98864.52
2022-08-03T22:30:16.759Z,98859.20
2022-08-03T22:33:03.882Z,98856.02
2022-08-03T22:35:47.234Z,98863.33
2022-08-03T22:38:48.123Z,98867.16
2022-08-03T22:41:18.945Z,98866.56
2022-08-03T22:43:46.546Z,98863.42
2022-08-03T22:46:24.750Z,98863.58
2022-08-03T22:48:59.959Z,98862.75
2022-08-03T22:51:38.793Z,98858.61
2022-08-03T22:54:15.182Z,98859.86
2022-08-03T22:56:43.014Z,98862.29
2022-08-03T22:59:41.127Z,98864.14
2022-08-03T23:02:21.264Z,98863.48
2022-08-03T23:04:53.227Z,98860.54
2022-08-03T23:07:31.925Z,98863.27
2022-08-03T23:10:05.532Z,98860.41
2022-08-03T23:12:51.511Z,98860.25
2022-08-03T23:15:26.846Z,98861.58
2022-08-03T23:17:58.679Z,98858.83
2022-08-03T23:20:31.196Z,98862.98
2022-08-03T23:23:04.306Z,98856.08
2022-08-03T23:25:39.588Z,98857.67
2022-08-03T23:28:15.358Z,98855.95
2022-08-03T23:30:45.907Z,98858.69
2022-08-03T23:33:17.564Z,98854.17
2022-08-03T23:36:20.123Z,98853.01
2022-08-03T23:41:41.132Z,98858.70
2022-08-03T23:44:16.647Z,98857.85
2022-08-03T23:46:46.925Z,98857.77
2022-08-03T23:49:23.657Z,98862.00
2022-08-03T23:52:12.390Z,98861.11
2022-08-03T23:55:12.291Z,98860.20
2022-08-03T23:58:11.014Z,98854.93
